sensor_id;sensor_type;location;lat;lon;timestamp;P1;durP1;ratioP1;P2;durP2;ratioP2
18623;SDS011;9441;51.420;7.036;2022-09-09T00:00:53;3.17;;;1.50;;
18623;SDS011;9441;51.420;7.036;2022-09-09T00:02:05;6.75;;;1.48;;
18623;SDS011;9441;51.420;7.036;2022-09-09T00:03:19;6.70;;;1.58;;
18623;SDS011;9441;51.420;7.036;2022-09-09T00:04:26;3.75;;;1.30;;
18623;SDS011;9441;51.420;7.036;2022-09-09T00:05:31;4.78;;;1.58;;
18623;SDS011;9441;51.420;7.036;2022-09-09T00:06:43;2.80;;;1.42;;
18623;SDS011;9441;51.420;7.036;2022-09-09T00:07:48;3.33;;;1.45;;
18623;SDS011;9441;51.420;7.036;2022-09-09T00:08:58;6.28;;;1.33;;
18623;SDS011;9441;51.420;7.036;2022-09-09T00:10:09;3.08;;;1.17;;
18623;SDS011;9441;51.420;7.036;2022-09-09T00:11:20;1.67;;;1.02;;
18623;SDS011;9441;51.420;7.036;2022-09-09T00:12:34;5.85;;;1.38;;
18623;SDS011;9441;51.420;7.036;2022-09-09T00:13:43;3.58;;;1.40;;
18623;SDS011;9441;51.420;7.036;2022-09-09T00:14:50;9.25;;;1.33;;
18623;SDS011;9441;51.420;7.036;2022-09-09T00:15:57;10.57;;;1.30;;
18623;SDS011;9441;51.420;7.036;2022-09-09T00:17:04;3.28;;;1.10;;
18623;SDS011;9441;51.420;7.036;2022-09-09T00:18:16;5.72;;;1.40;;
18623;SDS011;9441;51.420;7.036;2022-09-09T00:19:24;3.10;;;1.38;;
18623;SDS011;9441;51.420;7.036;2022-09-09T00:20:34;4.82;;;1.40;;
18623;SDS011;9441;51.420;7.036;2022-09-09T00:21:43;3.10;;;1.30;;
18623;SDS011;9441;51.420;7.036;2022-09-09T00:22:50;3.72;;;1.38;;
18623;SDS011;9441;51.420;7.036;2022-09-09T00:23:57;4.45;;;1.20;;
18623;SDS011;9441;51.420;7.036;2022-09-09T00:25:02;2.40;;;0.98;;
18623;SDS011;9441;51.420;7.036;2022-09-09T00:26:12;4.68;;;1.10;;
18623;SDS011;9441;51.420;7.036;2022-09-09T00:27:24;4.07;;;1.33;;
18623;SDS011;9441;51.420;7.036;2022-09-09T00:28:30;4.88;;;1.38;;
18623;SDS011;9441;51.420;7.036;2022-09-09T00:29:38;3.38;;;1.23;;
18623;SDS011;9441;51.420;7.036;2022-09-09T00:30:44;7.35;;;1.35;;
18623;SDS011;9441;51.420;7.036;2022-09-09T00:31:48;3.78;;;1.50;;
18623;SDS011;9441;51.420;7.036;2022-09-09T00:32:53;5.40;;;1.30;;
18623;SDS011;9441;51.420;7.036;2022-09-09T00:33:58;6.47;;;1.35;;
18623;SDS011;9441;51.420;7.036;2022-09-09T00:35:04;4.22;;;1.27;;
18623;SDS011;9441;51.420;7.036;2022-09-09T00:36:18;3.00;;;1.17;;
18623;SDS011;9441;51.420;7.036;2022-09-09T00:37:23;3.67;;;1.48;;
18623;SDS011;9441;51.420;7.036;2022-09-09T00:38:28;5.25;;;1.40;;
18623;SDS011;9441;51.420;7.036;2022-09-09T00:39:36;5.22;;;1.25;;
18623;SDS011;9441;51.420;7.036;2022-09-09T00:40:45;5.22;;;1.05;;
18623;SDS011;9441;51.420;7.036;2022-09-09T00:41:51;5.43;;;1.15;;
18623;SDS011;9441;51.420;7.036;2022-09-09T00:43:12;4.82;;;1.20;;
18623;SDS011;9441;51.420;7.036;2022-09-09T00:44:27;5.68;;;1.33;;
18623;SDS011;9441;51.420;7.036;2022-09-09T00:45:40;6.63;;;1.30;;
18623;SDS011;9441;51.420;7.036;2022-09-09T00:46:56;4.93;;;1.35;;
18623;SDS011;9441;51.420;7.036;2022-09-09T00:48:06;3.92;;;1.10;;
18623;SDS011;9441;51.420;7.036;2022-09-09T00:49:14;3.28;;;1.33;;
18623;SDS011;9441;51.420;7.036;2022-09-09T00:50:35;4.43;;;1.33;;
18623;SDS011;9441;51.420;7.036;2022-09-09T00:51:47;1.40;;;0.90;;
18623;SDS011;9441;51.420;7.036;2022-09-09T00:52:57;5.43;;;1.25;;
18623;SDS011;9441;51.420;7.036;2022-09-09T00:55:33;7.18;;;1.40;;
18623;SDS011;9441;51.420;7.036;2022-09-09T00:56:42;3.28;;;1.38;;
18623;SDS011;9441;51.420;7.036;2022-09-09T00:57:51;5.70;;;1.40;;
18623;SDS011;9441;51.420;7.036;2022-09-09T00:58:54;2.00;;;1.48;;
18623;SDS011;9441;51.420;7.036;2022-09-09T01:01:19;4.03;;;1.35;;
18623;SDS011;9441;51.420;7.036;2022-09-09T01:02:26;4.18;;;1.40;;
18623;SDS011;9441;51.420;7.036;2022-09-09T01:03:33;6.43;;;1.70;;
18623;SDS011;9441;51.420;7.036;2022-09-09T01:04:36;3.72;;;1.50;;
18623;SDS011;9441;51.420;7.036;2022-09-09T01:05:39;6.80;;;1.60;;
18623;SDS011;9441;51.420;7.036;2022-09-09T01:06:46;4.18;;;1.25;;
18623;SDS011;9441;51.420;7.036;2022-09-09T01:07:55;2.25;;;1.48;;
18623;SDS011;9441;51.420;7.036;2022-09-09T01:09:10;3.25;;;1.10;;
18623;SDS011;9441;51.420;7.036;2022-09-09T01:10:21;4.28;;;1.40;;
18623;SDS011;9441;51.420;7.036;2022-09-09T01:11:32;4.18;;;1.30;;
18623;SDS011;9441;51.420;7.036;2022-09-09T01:12:43;5.40;;;1.30;;
18623;SDS011;9441;51.420;7.036;2022-09-09T01:13:53;3.88;;;1.63;;
18623;SDS011;9441;51.420;7.036;2022-09-09T01:15:08;2.75;;;1.60;;
18623;SDS011;9441;51.420;7.036;2022-09-09T01:16:18;6.30;;;1.40;;
18623;SDS011;9441;51.420;7.036;2022-09-09T01:17:21;8.38;;;1.60;;
18623;SDS011;9441;51.420;7.036;2022-09-09T01:18:35;7.57;;;1.38;;
18623;SDS011;9441;51.420;7.036;2022-09-09T01:19:43;8.65;;;1.52;;
18623;SDS011;9441;51.420;7.036;2022-09-09T01:20:59;2.20;;;1.60;;
18623;SDS011;9441;51.420;7.036;2022-09-09T01:22:10;3.30;;;1.35;;
18623;SDS011;9441;51.420;7.036;2022-09-09T01:23:28;7.45;;;1.73;;
18623;SDS011;9441;51.420;7.036;2022-09-09T01:25:07;3.67;;;1.45;;
18623;SDS011;9441;51.420;7.036;2022-09-09T01:26:31;8.52;;;1.50;;
18623;SDS011;9441;51.420;7.036;2022-09-09T01:27:37;8.40;;;1.90;;
18623;SDS011;9441;51.420;7.036;2022-09-09T01:28:42;6.78;;;1.35;;
18623;SDS011;9441;51.420;7.036;2022-09-09T01:29:47;3.25;;;1.65;;
18623;SDS011;9441;51.420;7.036;2022-09-09T01:30:50;6.30;;;1.80;;
18623;SDS011;9441;51.420;7.036;2022-09-09T01:31:54;5.18;;;1.88;;
18623;SDS011;9441;51.420;7.036;2022-09-09T01:32:58;4.10;;;1.55;;
18623;SDS011;9441;51.420;7.036;2022-09-09T01:34:01;4.32;;;1.80;;
18623;SDS011;9441;51.420;7.036;2022-09-09T01:35:05;6.97;;;1.85;;
18623;SDS011;9441;51.420;7.036;2022-09-09T01:36:10;9.02;;;1.77;;
18623;SDS011;9441;51.420;7.036;2022-09-09T01:37:23;7.85;;;1.80;;
18623;SDS011;9441;51.420;7.036;2022-09-09T01:38:25;4.25;;;1.50;;
18623;SDS011;9441;51.420;7.036;2022-09-09T01:39:27;4.07;;;2.00;;
18623;SDS011;9441;51.420;7.036;2022-09-09T01:40:36;7.60;;;2.15;;
18623;SDS011;9441;51.420;7.036;2022-09-09T01:41:39;4.50;;;1.60;;
18623;SDS011;9441;51.420;7.036;2022-09-09T01:42:45;10.23;;;1.80;;
18623;SDS011;9441;51.420;7.036;2022-09-09T01:43:46;8.23;;;2.00;;
18623;SDS011;9441;51.420;7.036;2022-09-09T01:44:48;10.73;;;2.35;;
18623;SDS011;9441;51.420;7.036;2022-09-09T01:45:50;4.68;;;1.90;;
18623;SDS011;9441;51.420;7.036;2022-09-09T01:46:55;5.03;;;2.13;;
18623;SDS011;9441;51.420;7.036;2022-09-09T01:47:58;4.90;;;2.03;;
18623;SDS011;9441;51.420;7.036;2022-09-09T01:49:18;2.15;;;1.73;;
18623;SDS011;9441;51.420;7.036;2022-09-09T01:50:20;6.30;;;1.80;;
18623;SDS011;9441;51.420;7.036;2022-09-09T01:51:22;6.63;;;1.98;;
18623;SDS011;9441;51.420;7.036;2022-09-09T01:52:25;5.10;;;1.70;;
18623;SDS011;9441;51.420;7.036;2022-09-09T01:53:26;3.50;;;2.20;;
18623;SDS011;9441;51.420;7.036;2022-09-09T01:54:29;4.63;;;1.95;;
18623;SDS011;9441;51.420;7.036;2022-09-09T01:55:36;7.32;;;2.10;;
18623;SDS011;9441;51.420;7.036;2022-09-09T01:56:46;10.13;;;2.30;;
18623;SDS011;9441;51.420;7.036;2022-09-09T01:57:53;7.10;;;2.17;;
18623;SDS011;9441;51.420;7.036;2022-09-09T01:59:07;5.72;;;1.95;;
18623;SDS011;9441;51.420;7.036;2022-09-09T02:00:25;10.55;;;2.70;;
18623;SDS011;9441;51.420;7.036;2022-09-09T02:01:35;5.53;;;2.17;;
18623;SDS011;9441;51.420;7.036;2022-09-09T02:02:48;6.18;;;2.20;;
18623;SDS011;9441;51.420;7.036;2022-09-09T02:04:00;9.02;;;2.28;;
18623;SDS011;9441;51.420;7.036;2022-09-09T02:05:11;7.43;;;2.00;;
18623;SDS011;9441;51.420;7.036;2022-09-09T02:06:25;6.25;;;2.30;;
18623;SDS011;9441;51.420;7.036;2022-09-09T02:07:38;7.60;;;2.42;;
18623;SDS011;9441;51.420;7.036;2022-09-09T02:08:52;3.90;;;2.20;;
18623;SDS011;9441;51.420;7.036;2022-09-09T02:09:57;7.75;;;2.25;;
18623;SDS011;9441;51.420;7.036;2022-09-09T02:11:03;8.82;;;2.60;;
18623;SDS011;9441;51.420;7.036;2022-09-09T02:12:19;6.32;;;2.50;;
18623;SDS011;9441;51.420;7.036;2022-09-09T02:13:28;8.15;;;2.30;;
18623;SDS011;9441;51.420;7.036;2022-09-09T02:14:33;8.45;;;2.30;;
18623;SDS011;9441;51.420;7.036;2022-09-09T02:15:42;5.45;;;2.20;;
18623;SDS011;9441;51.420;7.036;2022-09-09T02:16:47;7.03;;;2.30;;
18623;SDS011;9441;51.420;7.036;2022-09-09T02:17:56;11.48;;;2.40;;
18623;SDS011;9441;51.420;7.036;2022-09-09T02:19:00;7.68;;;2.72;;
18623;SDS011;9441;51.420;7.036;2022-09-09T02:20:17;8.13;;;2.60;;
18623;SDS011;9441;51.420;7.036;2022-09-09T02:21:23;6.88;;;2.53;;
18623;SDS011;9441;51.420;7.036;2022-09-09T02:22:28;9.88;;;2.60;;
18623;SDS011;9441;51.420;7.036;2022-09-09T02:23:32;7.78;;;2.60;;
18623;SDS011;9441;51.420;7.036;2022-09-09T02:24:39;7.88;;;2.50;;
18623;SDS011;9441;51.420;7.036;2022-09-09T02:26:01;5.40;;;2.40;;
18623;SDS011;9441;51.420;7.036;2022-09-09T02:27:04;6.30;;;2.65;;
18623;SDS011;9441;51.420;7.036;2022-09-09T02:28:10;5.18;;;2.80;;
18623;SDS011;9441;51.420;7.036;2022-09-09T02:29:16;9.63;;;2.67;;
18623;SDS011;9441;51.420;7.036;2022-09-09T02:30:20;9.00;;;2.95;;
18623;SDS011;9441;51.420;7.036;2022-09-09T02:31:27;5.68;;;2.50;;
18623;SDS011;9441;51.420;7.036;2022-09-09T02:32:34;6.75;;;3.10;;
18623;SDS011;9441;51.420;7.036;2022-09-09T02:33:41;4.07;;;2.60;;
18623;SDS011;9441;51.420;7.036;2022-09-09T02:34:47;10.38;;;2.88;;
18623;SDS011;9441;51.420;7.036;2022-09-09T02:35:52;6.47;;;3.20;;
18623;SDS011;9441;51.420;7.036;2022-09-09T02:36:57;8.77;;;3.45;;
18623;SDS011;9441;51.420;7.036;2022-09-09T02:38:01;11.27;;;3.10;;
18623;SDS011;9441;51.420;7.036;2022-09-09T02:39:09;4.47;;;2.97;;
18623;SDS011;9441;51.420;7.036;2022-09-09T02:40:11;6.18;;;3.10;;
18623;SDS011;9441;51.420;7.036;2022-09-09T02:41:19;11.25;;;2.90;;
18623;SDS011;9441;51.420;7.036;2022-09-09T02:42:25;6.28;;;3.10;;
18623;SDS011;9441;51.420;7.036;2022-09-09T02:43:32;9.32;;;2.88;;
18623;SDS011;9441;51.420;7.036;2022-09-09T02:44:36;7.15;;;3.15;;
18623;SDS011;9441;51.420;7.036;2022-09-09T02:45:40;5.23;;;2.70;;
18623;SDS011;9441;51.420;7.036;2022-09-09T02:46:55;12.40;;;2.72;;
18623;SDS011;9441;51.420;7.036;2022-09-09T02:48:20;8.23;;;2.77;;
18623;SDS011;9441;51.420;7.036;2022-09-09T02:49:30;6.90;;;2.42;;
18623;SDS011;9441;51.420;7.036;2022-09-09T02:50:43;6.05;;;2.75;;
18623;SDS011;9441;51.420;7.036;2022-09-09T02:52:00;6.15;;;3.10;;
18623;SDS011;9441;51.420;7.036;2022-09-09T02:53:06;13.48;;;3.40;;
18623;SDS011;9441;51.420;7.036;2022-09-09T02:54:17;9.80;;;3.00;;
18623;SDS011;9441;51.420;7.036;2022-09-09T02:55:34;6.50;;;2.80;;
18623;SDS011;9441;51.420;7.036;2022-09-09T02:56:44;6.03;;;3.10;;
18623;SDS011;9441;51.420;7.036;2022-09-09T02:57:52;7.43;;;3.50;;
18623;SDS011;9441;51.420;7.036;2022-09-09T02:58:58;9.93;;;3.05;;
18623;SDS011;9441;51.420;7.036;2022-09-09T03:00:00;8.80;;;3.38;;
18623;SDS011;9441;51.420;7.036;2022-09-09T03:01:05;9.55;;;3.33;;
18623;SDS011;9441;51.420;7.036;2022-09-09T03:02:09;7.18;;;3.35;;
18623;SDS011;9441;51.420;7.036;2022-09-09T03:03:11;12.98;;;3.22;;
18623;SDS011;9441;51.420;7.036;2022-09-09T03:04:14;9.60;;;3.22;;
18623;SDS011;9441;51.420;7.036;2022-09-09T03:05:15;7.13;;;3.42;;
18623;SDS011;9441;51.420;7.036;2022-09-09T03:06:17;9.70;;;3.25;;
18623;SDS011;9441;51.420;7.036;2022-09-09T03:07:23;9.70;;;3.50;;
18623;SDS011;9441;51.420;7.036;2022-09-09T03:08:26;11.00;;;3.58;;
18623;SDS011;9441;51.420;7.036;2022-09-09T03:09:28;8.80;;;3.72;;
18623;SDS011;9441;51.420;7.036;2022-09-09T03:10:30;7.07;;;3.80;;
18623;SDS011;9441;51.420;7.036;2022-09-09T03:11:32;10.57;;;3.72;;
18623;SDS011;9441;51.420;7.036;2022-09-09T03:12:34;5.55;;;3.28;;
18623;SDS011;9441;51.420;7.036;2022-09-09T03:13:35;14.73;;;3.70;;
18623;SDS011;9441;51.420;7.036;2022-09-09T03:14:39;11.70;;;3.90;;
18623;SDS011;9441;51.420;7.036;2022-09-09T03:15:41;10.05;;;3.50;;
18623;SDS011;9441;51.420;7.036;2022-09-09T03:16:48;9.27;;;3.70;;
18623;SDS011;9441;51.420;7.036;2022-09-09T03:17:49;6.18;;;3.42;;
18623;SDS011;9441;51.420;7.036;2022-09-09T03:18:51;5.45;;;3.20;;
18623;SDS011;9441;51.420;7.036;2022-09-09T03:19:53;8.15;;;3.90;;
18623;SDS011;9441;51.420;7.036;2022-09-09T03:20:56;6.93;;;3.13;;
18623;SDS011;9441;51.420;7.036;2022-09-09T03:21:59;7.78;;;3.20;;
18623;SDS011;9441;51.420;7.036;2022-09-09T03:23:03;9.00;;;3.63;;
18623;SDS011;9441;51.420;7.036;2022-09-09T03:24:04;10.63;;;3.53;;
18623;SDS011;9441;51.420;7.036;2022-09-09T03:25:07;9.13;;;3.70;;
18623;SDS011;9441;51.420;7.036;2022-09-09T03:26:10;7.75;;;3.40;;
18623;SDS011;9441;51.420;7.036;2022-09-09T03:27:17;10.02;;;3.47;;
18623;SDS011;9441;51.420;7.036;2022-09-09T03:28:19;6.28;;;3.47;;
18623;SDS011;9441;51.420;7.036;2022-09-09T03:29:23;9.27;;;3.80;;
18623;SDS011;9441;51.420;7.036;2022-09-09T03:30:28;10.52;;;4.28;;
18623;SDS011;9441;51.420;7.036;2022-09-09T03:31:30;12.63;;;4.32;;
18623;SDS011;9441;51.420;7.036;2022-09-09T03:32:32;11.95;;;3.67;;
18623;SDS011;9441;51.420;7.036;2022-09-09T03:33:35;9.02;;;3.50;;
18623;SDS011;9441;51.420;7.036;2022-09-09T03:34:37;7.43;;;3.80;;
18623;SDS011;9441;51.420;7.036;2022-09-09T03:35:44;10.10;;;3.55;;
18623;SDS011;9441;51.420;7.036;2022-09-09T03:36:49;9.15;;;3.20;;
18623;SDS011;9441;51.420;7.036;2022-09-09T03:37:52;11.75;;;3.65;;
18623;SDS011;9441;51.420;7.036;2022-09-09T03:38:53;9.65;;;3.92;;
18623;SDS011;9441;51.420;7.036;2022-09-09T03:39:56;8.60;;;3.47;;
18623;SDS011;9441;51.420;7.036;2022-09-09T03:40:58;9.60;;;3.85;;
18623;SDS011;9441;51.420;7.036;2022-09-09T03:42:01;5.85;;;3.28;;
18623;SDS011;9441;51.420;7.036;2022-09-09T03:43:04;10.10;;;4.35;;
18623;SDS011;9441;51.420;7.036;2022-09-09T03:44:07;8.60;;;3.78;;
18623;SDS011;9441;51.420;7.036;2022-09-09T03:45:12;8.23;;;3.78;;
18623;SDS011;9441;51.420;7.036;2022-09-09T03:46:17;6.78;;;3.28;;
18623;SDS011;9441;51.420;7.036;2022-09-09T03:47:18;11.95;;;3.53;;
18623;SDS011;9441;51.420;7.036;2022-09-09T03:48:22;9.65;;;3.45;;
18623;SDS011;9441;51.420;7.036;2022-09-09T03:49:23;10.85;;;4.00;;
18623;SDS011;9441;51.420;7.036;2022-09-09T03:50:26;9.70;;;3.65;;
18623;SDS011;9441;51.420;7.036;2022-09-09T03:51:27;6.13;;;3.60;;
18623;SDS011;9441;51.420;7.036;2022-09-09T03:52:29;6.07;;;3.30;;
18623;SDS011;9441;51.420;7.036;2022-09-09T03:53:31;9.00;;;3.55;;
18623;SDS011;9441;51.420;7.036;2022-09-09T03:54:34;9.30;;;3.65;;
18623;SDS011;9441;51.420;7.036;2022-09-09T03:55:35;6.20;;;3.30;;
18623;SDS011;9441;51.420;7.036;2022-09-09T03:56:37;9.48;;;3.35;;
18623;SDS011;9441;51.420;7.036;2022-09-09T03:57:40;8.38;;;3.50;;
18623;SDS011;9441;51.420;7.036;2022-09-09T03:58:43;8.70;;;3.15;;
18623;SDS011;9441;51.420;7.036;2022-09-09T03:59:46;8.93;;;3.33;;
18623;SDS011;9441;51.420;7.036;2022-09-09T04:00:52;5.97;;;3.13;;
18623;SDS011;9441;51.420;7.036;2022-09-09T04:01:55;8.73;;;3.38;;
18623;SDS011;9441;51.420;7.036;2022-09-09T04:02:59;10.05;;;3.13;;
18623;SDS011;9441;51.420;7.036;2022-09-09T04:04:00;10.15;;;3.45;;
18623;SDS011;9441;51.420;7.036;2022-09-09T04:05:03;14.05;;;3.42;;
18623;SDS011;9441;51.420;7.036;2022-09-09T04:06:07;10.30;;;3.50;;
18623;SDS011;9441;51.420;7.036;2022-09-09T04:07:12;6.20;;;3.00;;
18623;SDS011;9441;51.420;7.036;2022-09-09T04:08:14;7.15;;;3.00;;
18623;SDS011;9441;51.420;7.036;2022-09-09T04:09:16;6.10;;;2.95;;
18623;SDS011;9441;51.420;7.036;2022-09-09T04:10:17;8.55;;;3.38;;
18623;SDS011;9441;51.420;7.036;2022-09-09T04:11:20;8.55;;;3.28;;
18623;SDS011;9441;51.420;7.036;2022-09-09T04:12:23;10.35;;;3.45;;
18623;SDS011;9441;51.420;7.036;2022-09-09T04:13:25;9.52;;;3.40;;
18623;SDS011;9441;51.420;7.036;2022-09-09T04:14:27;9.77;;;3.20;;
18623;SDS011;9441;51.420;7.036;2022-09-09T04:15:29;11.23;;;3.42;;
18623;SDS011;9441;51.420;7.036;2022-09-09T04:16:31;8.23;;;3.40;;
18623;SDS011;9441;51.420;7.036;2022-09-09T04:17:34;11.32;;;3.60;;
18623;SDS011;9441;51.420;7.036;2022-09-09T04:18:36;9.90;;;3.28;;
18623;SDS011;9441;51.420;7.036;2022-09-09T04:19:39;6.03;;;3.38;;
18623;SDS011;9441;51.420;7.036;2022-09-09T04:20:40;7.90;;;3.10;;
18623;SDS011;9441;51.420;7.036;2022-09-09T04:21:43;11.88;;;3.08;;
18623;SDS011;9441;51.420;7.036;2022-09-09T04:22:45;9.30;;;3.35;;
18623;SDS011;9441;51.420;7.036;2022-09-09T04:23:47;11.40;;;3.40;;
18623;SDS011;9441;51.420;7.036;2022-09-09T04:24:48;8.40;;;3.30;;
18623;SDS011;9441;51.420;7.036;2022-09-09T04:25:53;12.35;;;3.53;;
18623;SDS011;9441;51.420;7.036;2022-09-09T04:26:55;6.97;;;3.13;;
18623;SDS011;9441;51.420;7.036;2022-09-09T04:27:58;7.28;;;3.25;;
18623;SDS011;9441;51.420;7.036;2022-09-09T04:28:59;11.70;;;3.20;;
18623;SDS011;9441;51.420;7.036;2022-09-09T04:30:02;7.18;;;3.08;;
18623;SDS011;9441;51.420;7.036;2022-09-09T04:31:06;13.60;;;3.50;;
18623;SDS011;9441;51.420;7.036;2022-09-09T04:32:10;6.35;;;3.15;;
18623;SDS011;9441;51.420;7.036;2022-09-09T04:33:14;14.35;;;3.20;;
18623;SDS011;9441;51.420;7.036;2022-09-09T04:34:17;5.68;;;3.33;;
18623;SDS011;9441;51.420;7.036;2022-09-09T04:35:18;10.88;;;3.40;;
18623;SDS011;9441;51.420;7.036;2022-09-09T04:36:21;11.40;;;3.65;;
18623;SDS011;9441;51.420;7.036;2022-09-09T04:37:24;11.13;;;3.60;;
18623;SDS011;9441;51.420;7.036;2022-09-09T04:38:26;8.80;;;3.78;;
18623;SDS011;9441;51.420;7.036;2022-09-09T04:39:29;9.82;;;3.35;;
18623;SDS011;9441;51.420;7.036;2022-09-09T04:40:33;11.93;;;3.67;;
18623;SDS011;9441;51.420;7.036;2022-09-09T04:41:34;9.30;;;3.50;;
18623;SDS011;9441;51.420;7.036;2022-09-09T04:42:37;12.27;;;3.90;;
18623;SDS011;9441;51.420;7.036;2022-09-09T04:43:39;9.20;;;3.05;;
18623;SDS011;9441;51.420;7.036;2022-09-09T04:44:42;6.35;;;2.72;;
18623;SDS011;9441;51.420;7.036;2022-09-09T04:45:46;7.28;;;3.30;;
18623;SDS011;9441;51.420;7.036;2022-09-09T04:46:49;7.88;;;3.45;;
18623;SDS011;9441;51.420;7.036;2022-09-09T04:47:51;12.23;;;3.50;;
18623;SDS011;9441;51.420;7.036;2022-09-09T04:48:53;7.13;;;3.17;;
18623;SDS011;9441;51.420;7.036;2022-09-09T04:50:02;9.15;;;3.30;;
18623;SDS011;9441;51.420;7.036;2022-09-09T04:51:04;13.02;;;3.50;;
18623;SDS011;9441;51.420;7.036;2022-09-09T04:52:08;9.70;;;3.17;;
18623;SDS011;9441;51.420;7.036;2022-09-09T04:53:10;7.80;;;3.10;;
18623;SDS011;9441;51.420;7.036;2022-09-09T04:54:13;11.40;;;3.33;;
18623;SDS011;9441;51.420;7.036;2022-09-09T04:55:17;12.60;;;3.13;;
18623;SDS011;9441;51.420;7.036;2022-09-09T04:56:19;9.02;;;3.63;;
18623;SDS011;9441;51.420;7.036;2022-09-09T04:57:26;12.48;;;3.35;;
18623;SDS011;9441;51.420;7.036;2022-09-09T04:58:27;20.30;;;3.55;;
18623;SDS011;9441;51.420;7.036;2022-09-09T04:59:29;11.85;;;3.25;;
18623;SDS011;9441;51.420;7.036;2022-09-09T05:00:33;10.77;;;3.22;;
18623;SDS011;9441;51.420;7.036;2022-09-09T05:01:36;7.60;;;3.10;;
18623;SDS011;9441;51.420;7.036;2022-09-09T05:02:39;8.48;;;3.08;;
18623;SDS011;9441;51.420;7.036;2022-09-09T05:03:43;12.70;;;3.40;;
18623;SDS011;9441;51.420;7.036;2022-09-09T05:04:48;9.13;;;3.60;;
18623;SDS011;9441;51.420;7.036;2022-09-09T05:05:50;12.93;;;3.40;;
18623;SDS011;9441;51.420;7.036;2022-09-09T05:06:51;10.48;;;3.30;;
18623;SDS011;9441;51.420;7.036;2022-09-09T05:07:54;13.85;;;3.20;;
18623;SDS011;9441;51.420;7.036;2022-09-09T05:08:55;8.30;;;3.17;;
18623;SDS011;9441;51.420;7.036;2022-09-09T05:10:00;8.20;;;3.28;;
18623;SDS011;9441;51.420;7.036;2022-09-09T05:11:12;14.52;;;3.53;;
18623;SDS011;9441;51.420;7.036;2022-09-09T05:12:16;10.23;;;3.17;;
18623;SDS011;9441;51.420;7.036;2022-09-09T05:13:25;10.30;;;3.55;;
18623;SDS011;9441;51.420;7.036;2022-09-09T05:14:27;11.07;;;3.50;;
18623;SDS011;9441;51.420;7.036;2022-09-09T05:15:29;8.40;;;3.28;;
18623;SDS011;9441;51.420;7.036;2022-09-09T05:16:31;11.07;;;3.30;;
18623;SDS011;9441;51.420;7.036;2022-09-09T05:17:33;11.57;;;3.30;;
18623;SDS011;9441;51.420;7.036;2022-09-09T05:18:34;11.75;;;3.50;;
18623;SDS011;9441;51.420;7.036;2022-09-09T05:19:37;12.77;;;3.28;;
18623;SDS011;9441;51.420;7.036;2022-09-09T05:20:39;11.93;;;3.40;;
18623;SDS011;9441;51.420;7.036;2022-09-09T05:21:42;14.25;;;3.55;;
18623;SDS011;9441;51.420;7.036;2022-09-09T05:22:43;8.07;;;3.50;;
18623;SDS011;9441;51.420;7.036;2022-09-09T05:23:46;9.60;;;3.30;;
18623;SDS011;9441;51.420;7.036;2022-09-09T05:24:47;11.60;;;3.38;;
18623;SDS011;9441;51.420;7.036;2022-09-09T05:25:57;8.80;;;3.20;;
18623;SDS011;9441;51.420;7.036;2022-09-09T05:26:59;12.65;;;3.40;;
18623;SDS011;9441;51.420;7.036;2022-09-09T05:28:02;9.70;;;3.22;;
18623;SDS011;9441;51.420;7.036;2022-09-09T05:29:03;13.88;;;3.30;;
18623;SDS011;9441;51.420;7.036;2022-09-09T05:30:06;11.07;;;3.20;;
18623;SDS011;9441;51.420;7.036;2022-09-09T05:31:09;11.30;;;3.45;;
18623;SDS011;9441;51.420;7.036;2022-09-09T05:32:13;9.35;;;3.35;;
18623;SDS011;9441;51.420;7.036;2022-09-09T05:33:15;8.55;;;3.53;;
18623;SDS011;9441;51.420;7.036;2022-09-09T05:34:17;10.32;;;3.30;;
18623;SDS011;9441;51.420;7.036;2022-09-09T05:35:18;11.57;;;3.15;;
18623;SDS011;9441;51.420;7.036;2022-09-09T05:36:22;13.57;;;3.45;;
18623;SDS011;9441;51.420;7.036;2022-09-09T05:37:27;12.52;;;3.33;;
18623;SDS011;9441;51.420;7.036;2022-09-09T05:38:32;9.43;;;3.80;;
18623;SDS011;9441;51.420;7.036;2022-09-09T05:39:34;8.98;;;3.13;;
18623;SDS011;9441;51.420;7.036;2022-09-09T05:40:38;8.75;;;3.33;;
18623;SDS011;9441;51.420;7.036;2022-09-09T05:41:39;7.82;;;3.47;;
18623;SDS011;9441;51.420;7.036;2022-09-09T05:42:41;11.45;;;3.55;;
18623;SDS011;9441;51.420;7.036;2022-09-09T05:43:43;16.10;;;3.40;;
18623;SDS011;9441;51.420;7.036;2022-09-09T05:44:46;13.73;;;3.55;;
18623;SDS011;9441;51.420;7.036;2022-09-09T05:45:47;8.23;;;3.33;;
18623;SDS011;9441;51.420;7.036;2022-09-09T05:46:51;12.80;;;3.22;;
18623;SDS011;9441;51.420;7.036;2022-09-09T05:47:52;14.18;;;3.53;;
18623;SDS011;9441;51.420;7.036;2022-09-09T05:48:55;11.95;;;3.55;;
18623;SDS011;9441;51.420;7.036;2022-09-09T05:50:02;9.18;;;3.25;;
18623;SDS011;9441;51.420;7.036;2022-09-09T05:51:05;13.30;;;3.50;;
18623;SDS011;9441;51.420;7.036;2022-09-09T05:52:10;12.32;;;3.30;;
18623;SDS011;9441;51.420;7.036;2022-09-09T05:53:13;11.20;;;3.47;;
18623;SDS011;9441;51.420;7.036;2022-09-09T05:54:14;9.93;;;3.13;;
18623;SDS011;9441;51.420;7.036;2022-09-09T05:55:20;10.57;;;3.15;;
18623;SDS011;9441;51.420;7.036;2022-09-09T05:56:21;14.40;;;3.10;;
18623;SDS011;9441;51.420;7.036;2022-09-09T05:57:26;9.98;;;3.33;;
18623;SDS011;9441;51.420;7.036;2022-09-09T05:58:27;10.73;;;3.28;;
18623;SDS011;9441;51.420;7.036;2022-09-09T05:59:29;9.27;;;3.20;;
18623;SDS011;9441;51.420;7.036;2022-09-09T06:00:33;12.00;;;3.13;;
18623;SDS011;9441;51.420;7.036;2022-09-09T06:01:35;15.98;;;3.05;;
18623;SDS011;9441;51.420;7.036;2022-09-09T06:02:41;15.40;;;3.88;;
18623;SDS011;9441;51.420;7.036;2022-09-09T06:03:44;10.45;;;3.50;;
18623;SDS011;9441;51.420;7.036;2022-09-09T06:04:48;11.88;;;3.30;;
18623;SDS011;9441;51.420;7.036;2022-09-09T06:05:56;12.70;;;3.40;;
18623;SDS011;9441;51.420;7.036;2022-09-09T06:06:59;12.77;;;3.65;;
18623;SDS011;9441;51.420;7.036;2022-09-09T06:08:03;7.90;;;3.30;;
18623;SDS011;9441;51.420;7.036;2022-09-09T06:09:05;9.05;;;3.22;;
18623;SDS011;9441;51.420;7.036;2022-09-09T06:10:10;9.02;;;3.20;;
18623;SDS011;9441;51.420;7.036;2022-09-09T06:11:14;20.55;;;3.47;;
18623;SDS011;9441;51.420;7.036;2022-09-09T06:12:18;10.40;;;3.55;;
18623;SDS011;9441;51.420;7.036;2022-09-09T06:13:19;9.43;;;3.47;;
18623;SDS011;9441;51.420;7.036;2022-09-09T06:14:21;10.07;;;3.65;;
18623;SDS011;9441;51.420;7.036;2022-09-09T06:15:24;11.05;;;3.70;;
18623;SDS011;9441;51.420;7.036;2022-09-09T06:16:27;23.55;;;3.80;;
18623;SDS011;9441;51.420;7.036;2022-09-09T06:17:29;12.70;;;3.58;;
18623;SDS011;9441;51.420;7.036;2022-09-09T06:18:31;9.02;;;3.47;;
18623;SDS011;9441;51.420;7.036;2022-09-09T06:19:32;9.00;;;3.45;;
18623;SDS011;9441;51.420;7.036;2022-09-09T06:20:36;7.90;;;3.38;;
18623;SDS011;9441;51.420;7.036;2022-09-09T06:21:37;7.90;;;3.70;;
18623;SDS011;9441;51.420;7.036;2022-09-09T06:22:42;7.50;;;3.40;;
18623;SDS011;9441;51.420;7.036;2022-09-09T06:23:44;15.10;;;3.70;;
18623;SDS011;9441;51.420;7.036;2022-09-09T06:24:47;9.52;;;3.55;;
18623;SDS011;9441;51.420;7.036;2022-09-09T06:25:48;10.63;;;3.35;;
18623;SDS011;9441;51.420;7.036;2022-09-09T06:26:51;14.35;;;4.05;;
18623;SDS011;9441;51.420;7.036;2022-09-09T06:27:57;11.65;;;3.70;;
18623;SDS011;9441;51.420;7.036;2022-09-09T06:28:58;13.20;;;3.42;;
18623;SDS011;9441;51.420;7.036;2022-09-09T06:30:03;7.82;;;3.50;;
18623;SDS011;9441;51.420;7.036;2022-09-09T06:31:05;14.80;;;3.30;;
18623;SDS011;9441;51.420;7.036;2022-09-09T06:32:09;10.98;;;3.03;;
18623;SDS011;9441;51.420;7.036;2022-09-09T06:33:11;13.32;;;3.80;;
18623;SDS011;9441;51.420;7.036;2022-09-09T06:34:12;13.73;;;3.30;;
18623;SDS011;9441;51.420;7.036;2022-09-09T06:35:18;11.20;;;3.35;;
18623;SDS011;9441;51.420;7.036;2022-09-09T06:36:20;12.20;;;3.33;;
18623;SDS011;9441;51.420;7.036;2022-09-09T06:37:25;14.38;;;3.47;;
18623;SDS011;9441;51.420;7.036;2022-09-09T06:38:27;11.38;;;3.38;;
18623;SDS011;9441;51.420;7.036;2022-09-09T06:39:30;11.68;;;3.25;;
18623;SDS011;9441;51.420;7.036;2022-09-09T06:40:32;11.65;;;3.42;;
18623;SDS011;9441;51.420;7.036;2022-09-09T06:41:33;14.60;;;3.05;;